sensor_id;sensor_type;location;lat;lon;timestamp;P1;durP1;ratioP1;P2;durP2;ratioP2
20008;SDS011;10165;42.662;23.260;2023-10-31T00:00:50;3.73;;;2.00;;
20008;SDS011;10165;42.662;23.260;2023-10-31T00:03:17;2.23;;;2.00;;
20008;SDS011;10165;42.662;23.260;2023-10-31T00:05:44;2.53;;;2.03;;
20008;SDS011;10165;42.662;23.260;2023-10-31T00:08:10;3.77;;;1.90;;
20008;SDS011;10165;42.662;23.260;2023-10-31T00:10:37;7.47;;;3.27;;
20008;SDS011;10165;42.662;23.260;2023-10-31T00:13:04;4.40;;;2.70;;
20008;SDS011;10165;42.662;23.260;2023-10-31T00:15:31;5.77;;;2.37;;
20008;SDS011;10165;42.662;23.260;2023-10-31T00:17:58;2.93;;;2.40;;
20008;SDS011;10165;42.662;23.260;2023-10-31T00:20:24;3.77;;;2.33;;
20008;SDS011;10165;42.662;23.260;2023-10-31T00:22:51;2.93;;;2.60;;
20008;SDS011;10165;42.662;23.260;2023-10-31T00:25:18;2.20;;;2.00;;
20008;SDS011;10165;42.662;23.260;2023-10-31T00:27:46;3.70;;;2.47;;
20008;SDS011;10165;42.662;23.260;2023-10-31T00:30:12;4.23;;;2.20;;
20008;SDS011;10165;42.662;23.260;2023-10-31T00:32:39;6.40;;;2.37;;
20008;SDS011;10165;42.662;23.260;2023-10-31T00:35:06;3.60;;;2.60;;
20008;SDS011;10165;42.662;23.260;2023-10-31T00:37:33;6.13;;;2.00;;
20008;SDS011;10165;42.662;23.260;2023-10-31T00:40:00;4.73;;;2.20;;
20008;SDS011;10165;42.662;23.260;2023-10-31T00:42:27;3.43;;;2.30;;
20008;SDS011;10165;42.662;23.260;2023-10-31T00:44:54;2.60;;;2.17;;
20008;SDS011;10165;42.662;23.260;2023-10-31T00:47:20;3.67;;;2.60;;
20008;SDS011;10165;42.662;23.260;2023-10-31T00:49:47;5.13;;;3.07;;
20008;SDS011;10165;42.662;23.260;2023-10-31T00:52:14;3.80;;;2.60;;
20008;SDS011;10165;42.662;23.260;2023-10-31T00:54:41;6.43;;;2.73;;
20008;SDS011;10165;42.662;23.260;2023-10-31T00:57:08;4.20;;;2.43;;
20008;SDS011;10165;42.662;23.260;2023-10-31T00:59:35;6.03;;;2.80;;
20008;SDS011;10165;42.662;23.260;2023-10-31T01:02:02;7.33;;;2.90;;
20008;SDS011;10165;42.662;23.260;2023-10-31T01:04:28;3.27;;;2.70;;
20008;SDS011;10165;42.662;23.260;2023-10-31T01:06:55;5.37;;;2.60;;
20008;SDS011;10165;42.662;23.260;2023-10-31T01:09:22;6.23;;;2.80;;
20008;SDS011;10165;42.662;23.260;2023-10-31T01:11:48;4.93;;;2.57;;
20008;SDS011;10165;42.662;23.260;2023-10-31T01:14:15;3.67;;;2.00;;
20008;SDS011;10165;42.662;23.260;2023-10-31T01:16:42;5.10;;;2.40;;
20008;SDS011;10165;42.662;23.260;2023-10-31T01:19:09;3.33;;;2.47;;
20008;SDS011;10165;42.662;23.260;2023-10-31T01:21:36;5.13;;;2.43;;
20008;SDS011;10165;42.662;23.260;2023-10-31T01:24:02;3.97;;;3.00;;
20008;SDS011;10165;42.662;23.260;2023-10-31T01:26:29;5.93;;;2.63;;
20008;SDS011;10165;42.662;23.260;2023-10-31T01:28:56;2.93;;;2.40;;
20008;SDS011;10165;42.662;23.260;2023-10-31T01:31:24;4.67;;;2.70;;
20008;SDS011;10165;42.662;23.260;2023-10-31T01:33:51;2.33;;;1.93;;
20008;SDS011;10165;42.662;23.260;2023-10-31T01:36:18;3.73;;;2.63;;
20008;SDS011;10165;42.662;23.260;2023-10-31T01:38:45;2.50;;;2.30;;
20008;SDS011;10165;42.662;23.260;2023-10-31T01:41:12;5.00;;;2.47;;
20008;SDS011;10165;42.662;23.260;2023-10-31T01:43:39;4.80;;;2.70;;
20008;SDS011;10165;42.662;23.260;2023-10-31T01:46:06;4.23;;;2.60;;
20008;SDS011;10165;42.662;23.260;2023-10-31T01:48:33;4.70;;;2.57;;
20008;SDS011;10165;42.662;23.260;2023-10-31T01:51:01;4.90;;;2.87;;
20008;SDS011;10165;42.662;23.260;2023-10-31T01:53:31;4.40;;;2.60;;
20008;SDS011;10165;42.662;23.260;2023-10-31T01:56:01;4.50;;;2.63;;
20008;SDS011;10165;42.662;23.260;2023-10-31T01:58:31;2.93;;;2.27;;
20008;SDS011;10165;42.662;23.260;2023-10-31T02:01:00;3.37;;;2.10;;
20008;SDS011;10165;42.662;23.260;2023-10-31T02:03:27;8.17;;;3.00;;
20008;SDS011;10165;42.662;23.260;2023-10-31T02:05:54;5.30;;;2.67;;
20008;SDS011;10165;42.662;23.260;2023-10-31T02:08:22;6.17;;;2.97;;
20008;SDS011;10165;42.662;23.260;2023-10-31T02:10:50;6.10;;;3.57;;
20008;SDS011;10165;42.662;23.260;2023-10-31T02:13:17;5.83;;;3.17;;
20008;SDS011;10165;42.662;23.260;2023-10-31T02:15:44;8.33;;;3.10;;
20008;SDS011;10165;42.662;23.260;2023-10-31T02:18:12;6.23;;;3.10;;
20008;SDS011;10165;42.662;23.260;2023-10-31T02:20:39;9.23;;;3.20;;
20008;SDS011;10165;42.662;23.260;2023-10-31T02:23:06;6.60;;;3.50;;
20008;SDS011;10165;42.662;23.260;2023-10-31T02:25:33;3.07;;;2.47;;
20008;SDS011;10165;42.662;23.260;2023-10-31T02:28:00;7.13;;;2.60;;
20008;SDS011;10165;42.662;23.260;2023-10-31T02:30:29;8.97;;;2.90;;
20008;SDS011;10165;42.662;23.260;2023-10-31T02:32:57;4.33;;;2.93;;
20008;SDS011;10165;42.662;23.260;2023-10-31T02:35:23;5.67;;;2.57;;
20008;SDS011;10165;42.662;23.260;2023-10-31T02:37:50;3.43;;;2.60;;
20008;SDS011;10165;42.662;23.260;2023-10-31T02:40:17;6.87;;;3.17;;
20008;SDS011;10165;42.662;23.260;2023-10-31T02:42:44;5.03;;;2.43;;
20008;SDS011;10165;42.662;23.260;2023-10-31T02:45:11;3.50;;;2.70;;
20008;SDS011;10165;42.662;23.260;2023-10-31T02:47:38;5.50;;;2.93;;
20008;SDS011;10165;42.662;23.260;2023-10-31T02:50:05;5.20;;;2.67;;
20008;SDS011;10165;42.662;23.260;2023-10-31T02:52:32;3.10;;;2.80;;
20008;SDS011;10165;42.662;23.260;2023-10-31T02:54:59;3.73;;;2.93;;
20008;SDS011;10165;42.662;23.260;2023-10-31T02:57:26;5.17;;;2.70;;
20008;SDS011;10165;42.662;23.260;2023-10-31T02:59:52;5.90;;;2.97;;
20008;SDS011;10165;42.662;23.260;2023-10-31T03:02:19;6.47;;;2.97;;
20008;SDS011;10165;42.662;23.260;2023-10-31T03:04:46;2.80;;;2.33;;
20008;SDS011;10165;42.662;23.260;2023-10-31T03:07:13;3.80;;;2.53;;
20008;SDS011;10165;42.662;23.260;2023-10-31T03:09:40;4.27;;;3.13;;
20008;SDS011;10165;42.662;23.260;2023-10-31T03:12:07;6.57;;;2.97;;
20008;SDS011;10165;42.662;23.260;2023-10-31T03:14:33;4.97;;;2.40;;
20008;SDS011;10165;42.662;23.260;2023-10-31T03:17:00;2.87;;;2.10;;
20008;SDS011;10165;42.662;23.260;2023-10-31T03:19:27;8.63;;;2.83;;
20008;SDS011;10165;42.662;23.260;2023-10-31T03:21:54;6.60;;;2.90;;
20008;SDS011;10165;42.662;23.260;2023-10-31T03:24:20;3.63;;;2.77;;
20008;SDS011;10165;42.662;23.260;2023-10-31T03:26:47;4.43;;;3.00;;
20008;SDS011;10165;42.662;23.260;2023-10-31T03:29:14;5.73;;;2.87;;
20008;SDS011;10165;42.662;23.260;2023-10-31T03:31:40;3.47;;;2.80;;
20008;SDS011;10165;42.662;23.260;2023-10-31T03:34:08;4.03;;;2.73;;
20008;SDS011;10165;42.662;23.260;2023-10-31T03:36:34;3.57;;;2.60;;
20008;SDS011;10165;42.662;23.260;2023-10-31T03:39:01;4.47;;;2.83;;
20008;SDS011;10165;42.662;23.260;2023-10-31T03:41:28;4.53;;;2.53;;
20008;SDS011;10165;42.662;23.260;2023-10-31T03:43:55;9.10;;;3.20;;
20008;SDS011;10165;42.662;23.260;2023-10-31T03:46:22;7.87;;;2.60;;
20008;SDS011;10165;42.662;23.260;2023-10-31T03:48:48;4.30;;;2.57;;
20008;SDS011;10165;42.662;23.260;2023-10-31T03:51:16;3.90;;;2.60;;
20008;SDS011;10165;42.662;23.260;2023-10-31T03:53:42;5.23;;;2.90;;
20008;SDS011;10165;42.662;23.260;2023-10-31T03:56:09;13.17;;;3.17;;
20008;SDS011;10165;42.662;23.260;2023-10-31T03:58:36;3.03;;;2.27;;
20008;SDS011;10165;42.662;23.260;2023-10-31T04:01:03;6.27;;;2.70;;
20008;SDS011;10165;42.662;23.260;2023-10-31T04:03:30;2.50;;;2.30;;
20008;SDS011;10165;42.662;23.260;2023-10-31T04:05:57;7.87;;;2.70;;
20008;SDS011;10165;42.662;23.260;2023-10-31T04:08:23;3.30;;;2.60;;
20008;SDS011;10165;42.662;23.260;2023-10-31T04:10:50;10.03;;;3.33;;
20008;SDS011;10165;42.662;23.260;2023-10-31T04:13:19;3.90;;;3.00;;
20008;SDS011;10165;42.662;23.260;2023-10-31T04:15:45;6.47;;;3.20;;
20008;SDS011;10165;42.662;23.260;2023-10-31T04:18:12;7.47;;;2.43;;
20008;SDS011;10165;42.662;23.260;2023-10-31T04:20:39;4.67;;;3.13;;
20008;SDS011;10165;42.662;23.260;2023-10-31T04:23:06;6.43;;;3.20;;
20008;SDS011;10165;42.662;23.260;2023-10-31T04:25:32;5.43;;;2.93;;
20008;SDS011;10165;42.662;23.260;2023-10-31T04:27:59;6.60;;;2.90;;
20008;SDS011;10165;42.662;23.260;2023-10-31T04:30:27;4.17;;;3.13;;
20008;SDS011;10165;42.662;23.260;2023-10-31T04:32:55;3.40;;;3.03;;
20008;SDS011;10165;42.662;23.260;2023-10-31T04:35:21;5.00;;;2.70;;
20008;SDS011;10165;42.662;23.260;2023-10-31T04:37:48;5.43;;;3.10;;
20008;SDS011;10165;42.662;23.260;2023-10-31T04:40:23;6.30;;;3.07;;
20008;SDS011;10165;42.662;23.260;2023-10-31T04:42:50;5.57;;;2.87;;
20008;SDS011;10165;42.662;23.260;2023-10-31T04:45:16;4.13;;;2.93;;
20008;SDS011;10165;42.662;23.260;2023-10-31T04:47:43;5.80;;;3.00;;
20008;SDS011;10165;42.662;23.260;2023-10-31T04:50:10;5.97;;;2.80;;
20008;SDS011;10165;42.662;23.260;2023-10-31T04:52:37;4.57;;;3.30;;
20008;SDS011;10165;42.662;23.260;2023-10-31T04:55:04;5.50;;;2.90;;
20008;SDS011;10165;42.662;23.260;2023-10-31T04:57:31;4.33;;;2.47;;
20008;SDS011;10165;42.662;23.260;2023-10-31T04:59:58;2.90;;;2.47;;
20008;SDS011;10165;42.662;23.260;2023-10-31T05:02:25;5.07;;;3.33;;
20008;SDS011;10165;42.662;23.260;2023-10-31T05:04:54;6.17;;;3.47;;
20008;SDS011;10165;42.662;23.260;2023-10-31T05:07:20;11.20;;;3.07;;
20008;SDS011;10165;42.662;23.260;2023-10-31T05:09:47;4.77;;;3.43;;
20008;SDS011;10165;42.662;23.260;2023-10-31T05:12:17;5.83;;;3.50;;
20008;SDS011;10165;42.662;23.260;2023-10-31T05:14:47;6.17;;;3.03;;
20008;SDS011;10165;42.662;23.260;2023-10-31T05:17:14;9.50;;;3.70;;
20008;SDS011;10165;42.662;23.260;2023-10-31T05:19:41;6.90;;;3.33;;
20008;SDS011;10165;42.662;23.260;2023-10-31T05:22:08;9.27;;;3.80;;
20008;SDS011;10165;42.662;23.260;2023-10-31T05:24:36;10.10;;;4.33;;
20008;SDS011;10165;42.662;23.260;2023-10-31T05:27:03;4.20;;;3.33;;
20008;SDS011;10165;42.662;23.260;2023-10-31T05:29:30;6.07;;;3.37;;
20008;SDS011;10165;42.662;23.260;2023-10-31T05:31:56;4.37;;;3.07;;
20008;SDS011;10165;42.662;23.260;2023-10-31T05:34:23;4.70;;;3.83;;
20008;SDS011;10165;42.662;23.260;2023-10-31T05:36:54;6.50;;;4.43;;
20008;SDS011;10165;42.662;23.260;2023-10-31T05:39:21;5.27;;;3.37;;
20008;SDS011;10165;42.662;23.260;2023-10-31T05:42:04;5.07;;;3.67;;
20008;SDS011;10165;42.662;23.260;2023-10-31T05:44:31;9.80;;;3.80;;
20008;SDS011;10165;42.662;23.260;2023-10-31T05:46:58;6.33;;;3.70;;
20008;SDS011;10165;42.662;23.260;2023-10-31T05:49:25;10.03;;;3.43;;
20008;SDS011;10165;42.662;23.260;2023-10-31T05:51:51;9.07;;;3.70;;
20008;SDS011;10165;42.662;23.260;2023-10-31T05:54:19;7.33;;;4.00;;
20008;SDS011;10165;42.662;23.260;2023-10-31T05:56:46;10.30;;;3.93;;
20008;SDS011;10165;42.662;23.260;2023-10-31T05:59:13;6.73;;;4.23;;
20008;SDS011;10165;42.662;23.260;2023-10-31T06:01:40;8.20;;;3.80;;
20008;SDS011;10165;42.662;23.260;2023-10-31T06:04:07;4.20;;;3.33;;
20008;SDS011;10165;42.662;23.260;2023-10-31T06:06:36;7.63;;;3.93;;
20008;SDS011;10165;42.662;23.260;2023-10-31T06:09:04;11.93;;;4.87;;
20008;SDS011;10165;42.662;23.260;2023-10-31T06:11:31;4.70;;;3.70;;
20008;SDS011;10165;42.662;23.260;2023-10-31T06:13:58;7.97;;;4.83;;
20008;SDS011;10165;42.662;23.260;2023-10-31T06:16:26;9.43;;;4.97;;
20008;SDS011;10165;42.662;23.260;2023-10-31T06:18:53;6.70;;;4.87;;
20008;SDS011;10165;42.662;23.260;2023-10-31T06:21:19;9.93;;;5.53;;
20008;SDS011;10165;42.662;23.260;2023-10-31T06:23:46;8.50;;;5.47;;
20008;SDS011;10165;42.662;23.260;2023-10-31T06:26:13;10.70;;;5.80;;
20008;SDS011;10165;42.662;23.260;2023-10-31T06:28:40;12.33;;;5.27;;
20008;SDS011;10165;42.662;23.260;2023-10-31T06:31:22;15.53;;;5.30;;
20008;SDS011;10165;42.662;23.260;2023-10-31T06:33:50;8.63;;;6.00;;
20008;SDS011;10165;42.662;23.260;2023-10-31T06:36:16;11.27;;;6.00;;
20008;SDS011;10165;42.662;23.260;2023-10-31T06:38:43;12.70;;;5.67;;
20008;SDS011;10165;42.662;23.260;2023-10-31T06:41:12;13.13;;;6.33;;
20008;SDS011;10165;42.662;23.260;2023-10-31T06:43:40;9.60;;;5.50;;
20008;SDS011;10165;42.662;23.260;2023-10-31T06:46:06;10.97;;;5.60;;
20008;SDS011;10165;42.662;23.260;2023-10-31T06:48:33;10.17;;;5.20;;
20008;SDS011;10165;42.662;23.260;2023-10-31T06:51:00;13.97;;;5.50;;
20008;SDS011;10165;42.662;23.260;2023-10-31T06:53:27;13.30;;;5.67;;
20008;SDS011;10165;42.662;23.260;2023-10-31T06:55:54;9.27;;;5.70;;
20008;SDS011;10165;42.662;23.260;2023-10-31T06:58:21;17.43;;;5.90;;
20008;SDS011;10165;42.662;23.260;2023-10-31T07:00:47;11.23;;;5.63;;
20008;SDS011;10165;42.662;23.260;2023-10-31T07:03:14;17.83;;;6.20;;
20008;SDS011;10165;42.662;23.260;2023-10-31T07:05:42;11.97;;;6.03;;
20008;SDS011;10165;42.662;23.260;2023-10-31T07:08:09;14.20;;;5.87;;
20008;SDS011;10165;42.662;23.260;2023-10-31T07:10:36;18.13;;;5.60;;
20008;SDS011;10165;42.662;23.260;2023-10-31T07:13:02;8.47;;;4.93;;
20008;SDS011;10165;42.662;23.260;2023-10-31T07:15:29;11.83;;;6.50;;
20008;SDS011;10165;42.662;23.260;2023-10-31T07:17:56;10.43;;;6.13;;
20008;SDS011;10165;42.662;23.260;2023-10-31T07:20:23;9.67;;;4.93;;
20008;SDS011;10165;42.662;23.260;2023-10-31T07:22:49;13.93;;;5.60;;
20008;SDS011;10165;42.662;23.260;2023-10-31T07:25:16;9.20;;;5.40;;
20008;SDS011;10165;42.662;23.260;2023-10-31T07:27:43;10.47;;;5.57;;
20008;SDS011;10165;42.662;23.260;2023-10-31T07:30:10;14.67;;;5.70;;
20008;SDS011;10165;42.662;23.260;2023-10-31T07:32:37;11.20;;;6.30;;
20008;SDS011;10165;42.662;23.260;2023-10-31T07:35:04;12.47;;;5.57;;
20008;SDS011;10165;42.662;23.260;2023-10-31T07:37:31;13.10;;;6.27;;
20008;SDS011;10165;42.662;23.260;2023-10-31T07:40:02;12.27;;;6.33;;
20008;SDS011;10165;42.662;23.260;2023-10-31T07:42:30;9.57;;;6.60;;
20008;SDS011;10165;42.662;23.260;2023-10-31T07:44:57;16.40;;;6.60;;
20008;SDS011;10165;42.662;23.260;2023-10-31T07:47:24;14.47;;;6.93;;
20008;SDS011;10165;42.662;23.260;2023-10-31T07:49:50;14.63;;;6.57;;
20008;SDS011;10165;42.662;23.260;2023-10-31T07:52:19;13.20;;;6.87;;
20008;SDS011;10165;42.662;23.260;2023-10-31T07:54:46;12.27;;;6.73;;
20008;SDS011;10165;42.662;23.260;2023-10-31T07:57:13;15.33;;;7.70;;
20008;SDS011;10165;42.662;23.260;2023-10-31T07:59:40;16.10;;;7.00;;
20008;SDS011;10165;42.662;23.260;2023-10-31T08:02:06;12.60;;;6.83;;
20008;SDS011;10165;42.662;23.260;2023-10-31T08:04:33;9.90;;;6.67;;
20008;SDS011;10165;42.662;23.260;2023-10-31T08:07:00;21.23;;;8.23;;
20008;SDS011;10165;42.662;23.260;2023-10-31T08:09:27;22.43;;;6.83;;
20008;SDS011;10165;42.662;23.260;2023-10-31T08:11:53;12.87;;;7.83;;
20008;SDS011;10165;42.662;23.260;2023-10-31T08:14:20;14.93;;;6.77;;
20008;SDS011;10165;42.662;23.260;2023-10-31T08:16:51;12.87;;;6.30;;
20008;SDS011;10165;42.662;23.260;2023-10-31T08:19:18;8.77;;;6.17;;
20008;SDS011;10165;42.662;23.260;2023-10-31T08:21:44;16.93;;;7.20;;
20008;SDS011;10165;42.662;23.260;2023-10-31T08:24:11;19.97;;;7.63;;
20008;SDS011;10165;42.662;23.260;2023-10-31T08:26:39;14.73;;;6.93;;
20008;SDS011;10165;42.662;23.260;2023-10-31T08:29:06;11.40;;;6.07;;
20008;SDS011;10165;42.662;23.260;2023-10-31T08:31:33;15.30;;;6.93;;
20008;SDS011;10165;42.662;23.260;2023-10-31T08:34:00;7.40;;;5.40;;
20008;SDS011;10165;42.662;23.260;2023-10-31T08:36:27;9.50;;;5.23;;
20008;SDS011;10165;42.662;23.260;2023-10-31T08:38:55;9.43;;;5.20;;
20008;SDS011;10165;42.662;23.260;2023-10-31T08:41:22;8.93;;;5.00;;
20008;SDS011;10165;42.662;23.260;2023-10-31T08:43:49;16.10;;;5.20;;
20008;SDS011;10165;42.662;23.260;2023-10-31T08:46:16;10.97;;;5.60;;
20008;SDS011;10165;42.662;23.260;2023-10-31T08:48:42;12.20;;;4.90;;
20008;SDS011;10165;42.662;23.260;2023-10-31T08:51:09;8.93;;;5.70;;
20008;SDS011;10165;42.662;23.260;2023-10-31T08:53:36;12.57;;;5.93;;
20008;SDS011;10165;42.662;23.260;2023-10-31T08:56:03;16.03;;;6.13;;
20008;SDS011;10165;42.662;23.260;2023-10-31T08:58:30;9.63;;;5.40;;
20008;SDS011;10165;42.662;23.260;2023-10-31T09:00:57;10.17;;;5.43;;
20008;SDS011;10165;42.662;23.260;2023-10-31T09:03:23;8.50;;;5.20;;
20008;SDS011;10165;42.662;23.260;2023-10-31T09:05:50;9.33;;;5.23;;
20008;SDS011;10165;42.662;23.260;2023-10-31T09:08:17;9.43;;;4.63;;
20008;SDS011;10165;42.662;23.260;2023-10-31T09:10:44;14.63;;;4.60;;
20008;SDS011;10165;42.662;23.260;2023-10-31T09:13:13;8.70;;;5.13;;
20008;SDS011;10165;42.662;23.260;2023-10-31T09:15:40;5.93;;;3.40;;
20008;SDS011;10165;42.662;23.260;2023-10-31T09:18:07;6.00;;;4.03;;
20008;SDS011;10165;42.662;23.260;2023-10-31T09:20:34;7.90;;;3.80;;
20008;SDS011;10165;42.662;23.260;2023-10-31T09:23:01;7.80;;;3.93;;
20008;SDS011;10165;42.662;23.260;2023-10-31T09:25:28;10.57;;;4.63;;
20008;SDS011;10165;42.662;23.260;2023-10-31T09:27:56;6.23;;;4.30;;
20008;SDS011;10165;42.662;23.260;2023-10-31T09:30:25;8.47;;;4.10;;
20008;SDS011;10165;42.662;23.260;2023-10-31T09:32:52;11.97;;;4.37;;
20008;SDS011;10165;42.662;23.260;2023-10-31T09:35:19;6.43;;;3.80;;
20008;SDS011;10165;42.662;23.260;2023-10-31T09:37:46;6.70;;;3.63;;
20008;SDS011;10165;42.662;23.260;2023-10-31T09:40:15;15.47;;;4.50;;
20008;SDS011;10165;42.662;23.260;2023-10-31T09:42:43;5.37;;;4.03;;
20008;SDS011;10165;42.662;23.260;2023-10-31T09:45:11;12.77;;;4.37;;
20008;SDS011;10165;42.662;23.260;2023-10-31T09:47:39;8.83;;;3.93;;
20008;SDS011;10165;42.662;23.260;2023-10-31T09:50:07;4.53;;;2.90;;
20008;SDS011;10165;42.662;23.260;2023-10-31T09:52:36;8.03;;;3.73;;
20008;SDS011;10165;42.662;23.260;2023-10-31T09:55:03;6.43;;;3.23;;
20008;SDS011;10165;42.662;23.260;2023-10-31T09:57:31;8.33;;;3.47;;
20008;SDS011;10165;42.662;23.260;2023-10-31T09:59:58;8.53;;;3.70;;
20008;SDS011;10165;42.662;23.260;2023-10-31T10:02:25;8.00;;;3.77;;
20008;SDS011;10165;42.662;23.260;2023-10-31T10:04:52;7.67;;;3.40;;
20008;SDS011;10165;42.662;23.260;2023-10-31T10:07:19;7.40;;;3.23;;
20008;SDS011;10165;42.662;23.260;2023-10-31T10:09:46;9.60;;;3.73;;
20008;SDS011;10165;42.662;23.260;2023-10-31T10:12:13;8.80;;;3.47;;
20008;SDS011;10165;42.662;23.260;2023-10-31T10:14:41;4.50;;;3.30;;
20008;SDS011;10165;42.662;23.260;2023-10-31T10:17:16;7.57;;;2.73;;
20008;SDS011;10165;42.662;23.260;2023-10-31T10:19:46;5.57;;;3.00;;
20008;SDS011;10165;42.662;23.260;2023-10-31T10:22:13;10.50;;;3.03;;
20008;SDS011;10165;42.662;23.260;2023-10-31T10:24:41;5.10;;;2.97;;
20008;SDS011;10165;42.662;23.260;2023-10-31T10:27:08;5.90;;;3.50;;
20008;SDS011;10165;42.662;23.260;2023-10-31T10:29:35;6.43;;;4.27;;
20008;SDS011;10165;42.662;23.260;2023-10-31T10:32:05;7.03;;;3.33;;
20008;SDS011;10165;42.662;23.260;2023-10-31T10:34:35;8.27;;;3.20;;
20008;SDS011;10165;42.662;23.260;2023-10-31T10:37:04;4.63;;;3.10;;
20008;SDS011;10165;42.662;23.260;2023-10-31T10:39:32;7.67;;;2.90;;
20008;SDS011;10165;42.662;23.260;2023-10-31T10:42:01;11.20;;;3.60;;
20008;SDS011;10165;42.662;23.260;2023-10-31T10:44:34;4.30;;;2.63;;
20008;SDS011;10165;42.662;23.260;2023-10-31T10:47:05;8.70;;;2.87;;
20008;SDS011;10165;42.662;23.260;2023-10-31T10:49:34;5.70;;;3.17;;
20008;SDS011;10165;42.662;23.260;2023-10-31T10:54:34;11.83;;;3.57;;
20008;SDS011;10165;42.662;23.260;2023-10-31T10:59:48;5.97;;;2.87;;
20008;SDS011;10165;42.662;23.260;2023-10-31T11:02:18;4.47;;;2.73;;
20008;SDS011;10165;42.662;23.260;2023-10-31T11:04:45;9.67;;;2.80;;
20008;SDS011;10165;42.662;23.260;2023-10-31T11:07:15;8.17;;;2.57;;
20008;SDS011;10165;42.662;23.260;2023-10-31T11:09:44;7.60;;;3.10;;
20008;SDS011;10165;42.662;23.260;2023-10-31T11:12:12;7.27;;;2.30;;
20008;SDS011;10165;42.662;23.260;2023-10-31T11:14:40;3.73;;;2.37;;
20008;SDS011;10165;42.662;23.260;2023-10-31T11:20:07;8.87;;;2.77;;
20008;SDS011;10165;42.662;23.260;2023-10-31T11:22:40;8.27;;;2.40;;
20008;SDS011;10165;42.662;23.260;2023-10-31T11:25:10;4.77;;;2.73;;
20008;SDS011;10165;42.662;23.260;2023-10-31T11:27:51;3.30;;;2.20;;
20008;SDS011;10165;42.662;23.260;2023-10-31T11:32:54;4.80;;;2.77;;
20008;SDS011;10165;42.662;23.260;2023-10-31T11:35:21;5.10;;;2.10;;
20008;SDS011;10165;42.662;23.260;2023-10-31T11:38:15;5.07;;;2.53;;
20008;SDS011;10165;42.662;23.260;2023-10-31T11:40:57;6.77;;;2.40;;
20008;SDS011;10165;42.662;23.260;2023-10-31T11:43:36;7.60;;;2.70;;
20008;SDS011;10165;42.662;23.260;2023-10-31T11:46:23;5.13;;;2.27;;
20008;SDS011;10165;42.662;23.260;2023-10-31T11:48:55;3.80;;;2.33;;
20008;SDS011;10165;42.662;23.260;2023-10-31T11:51:24;5.97;;;2.03;;
20008;SDS011;10165;42.662;23.260;2023-10-31T11:53:51;8.80;;;2.27;;
20008;SDS011;10165;42.662;23.260;2023-10-31T11:56:19;6.10;;;2.30;;
20008;SDS011;10165;42.662;23.260;2023-10-31T12:01:45;8.80;;;2.60;;
20008;SDS011;10165;42.662;23.260;2023-10-31T12:04:22;5.03;;;2.30;;
20008;SDS011;10165;42.662;23.260;2023-10-31T12:06:57;3.93;;;2.47;;
20008;SDS011;10165;42.662;23.260;2023-10-31T12:09:25;3.13;;;2.10;;
20008;SDS011;10165;42.662;23.260;2023-10-31T12:11:51;4.40;;;1.93;;
20008;SDS011;10165;42.662;23.260;2023-10-31T12:14:18;4.00;;;1.77;;
20008;SDS011;10165;42.662;23.260;2023-10-31T12:16:46;5.73;;;2.20;;
20008;SDS011;10165;42.662;23.260;2023-10-31T12:19:13;3.33;;;2.10;;
20008;SDS011;10165;42.662;23.260;2023-10-31T12:21:44;1.87;;;1.67;;
20008;SDS011;10165;42.662;23.260;2023-10-31T12:24:14;6.10;;;2.23;;
20008;SDS011;10165;42.662;23.260;2023-10-31T12:26:42;3.33;;;1.73;;
20008;SDS011;10165;42.662;23.260;2023-10-31T12:29:14;6.63;;;2.17;;
20008;SDS011;10165;42.662;23.260;2023-10-31T12:31:44;4.60;;;2.07;;
20008;SDS011;10165;42.662;23.260;2023-10-31T12:34:15;3.30;;;2.10;;
20008;SDS011;10165;42.662;23.260;2023-10-31T12:36:43;5.77;;;1.70;;
20008;SDS011;10165;42.662;23.260;2023-10-31T12:39:11;6.67;;;2.30;;
20008;SDS011;10165;42.662;23.260;2023-10-31T12:41:40;4.03;;;2.17;;
20008;SDS011;10165;42.662;23.260;2023-10-31T12:44:07;5.10;;;2.10;;
20008;SDS011;10165;42.662;23.260;2023-10-31T12:46:40;7.87;;;2.10;;
20008;SDS011;10165;42.662;23.260;2023-10-31T12:49:11;4.10;;;1.90;;
20008;SDS011;10165;42.662;23.260;2023-10-31T12:51:54;9.03;;;2.40;;
20008;SDS011;10165;42.662;23.260;2023-10-31T12:57:03;5.57;;;2.30;;
20008;SDS011;10165;42.662;23.260;2023-10-31T12:59:32;4.07;;;2.27;;
20008;SDS011;10165;42.662;23.260;2023-10-31T13:02:00;3.03;;;2.30;;
20008;SDS011;10165;42.662;23.260;2023-10-31T13:04:30;10.80;;;2.60;;
20008;SDS011;10165;42.662;23.260;2023-10-31T13:07:05;4.50;;;2.40;;
20008;SDS011;10165;42.662;23.260;2023-10-31T13:09:35;6.60;;;2.50;;
20008;SDS011;10165;42.662;23.260;2023-10-31T13:12:04;4.90;;;2.40;;
20008;SDS011;10165;42.662;23.260;2023-10-31T13:14:32;7.97;;;2.13;;
20008;SDS011;10165;42.662;23.260;2023-10-31T13:17:00;4.10;;;2.00;;
20008;SDS011;10165;42.662;23.260;2023-10-31T13:19:28;5.90;;;2.30;;
20008;SDS011;10165;42.662;23.260;2023-10-31T13:21:55;3.23;;;2.43;;
20008;SDS011;10165;42.662;23.260;2023-10-31T13:24:22;10.13;;;2.30;;
20008;SDS011;10165;42.662;23.260;2023-10-31T13:26:49;3.60;;;1.83;;
20008;SDS011;10165;42.662;23.260;2023-10-31T13:29:19;3.60;;;2.40;;
20008;SDS011;10165;42.662;23.260;2023-10-31T13:31:47;5.40;;;2.37;;
20008;SDS011;10165;42.662;23.260;2023-10-31T13:34:23;7.47;;;2.47;;
20008;SDS011;10165;42.662;23.260;2023-10-31T13:36:50;2.53;;;2.33;;
20008;SDS011;10165;42.662;23.260;2023-10-31T13:39:20;3.60;;;2.10;;
20008;SDS011;10165;42.662;23.260;2023-10-31T13:41:48;7.10;;;2.67;;
20008;SDS011;10165;42.662;23.260;2023-10-31T13:44:28;3.73;;;2.77;;
20008;SDS011;10165;42.662;23.260;2023-10-31T13:46:58;5.90;;;2.60;;
20008;SDS011;10165;42.662;23.260;2023-10-31T13:49:31;6.10;;;2.70;;
20008;SDS011;10165;42.662;23.260;2023-10-31T13:51:58;9.17;;;3.17;;
20008;SDS011;10165;42.662;23.260;2023-10-31T13:54:25;8.73;;;2.43;;
20008;SDS011;10165;42.662;23.260;2023-10-31T13:56:53;6.50;;;2.63;;
20008;SDS011;10165;42.662;23.260;2023-10-31T13:59:20;5.57;;;2.60;;
20008;SDS011;10165;42.662;23.260;2023-10-31T14:01:46;4.17;;;2.90;;
20008;SDS011;10165;42.662;23.260;2023-10-31T14:04:13;4.33;;;2.17;;
20008;SDS011;10165;42.662;23.260;2023-10-31T14:06:41;5.23;;;2.70;;
20008;SDS011;10165;42.662;23.260;2023-10-31T14:09:09;4.43;;;2.30;;
20008;SDS011;10165;42.662;23.260;2023-10-31T14:11:38;4.13;;;2.20;;
20008;SDS011;10165;42.662;23.260;2023-10-31T14:14:06;6.27;;;2.57;;
20008;SDS011;10165;42.662;23.260;2023-10-31T14:16:36;2.73;;;2.40;;
20008;SDS011;10165;42.662;23.260;2023-10-31T14:19:05;7.60;;;2.57;;
20008;SDS011;10165;42.662;23.260;2023-10-31T14:21:33;7.57;;;3.47;;
20008;SDS011;10165;42.662;23.260;2023-10-31T14:24:01;8.77;;;3.90;;
20008;SDS011;10165;42.662;23.260;2023-10-31T14:26:37;10.07;;;4.10;;
20008;SDS011;10165;42.662;23.260;2023-10-31T14:29:07;6.90;;;3.43;;
20008;SDS011;10165;42.662;23.260;2023-10-31T14:31:40;9.10;;;3.77;;
20008;SDS011;10165;42.662;23.260;2023-10-31T14:34:08;7.83;;;3.03;;
20008;SDS011;10165;42.662;23.260;2023-10-31T14:36:36;8.17;;;3.17;;
20008;SDS011;10165;42.662;23.260;2023-10-31T14:39:03;7.30;;;2.50;;
20008;SDS011;10165;42.662;23.260;2023-10-31T14:41:31;9.63;;;2.70;;
20008;SDS011;10165;42.662;23.260;2023-10-31T14:44:00;5.13;;;2.27;;
20008;SDS011;10165;42.662;23.260;2023-10-31T14:46:31;8.80;;;2.57;;
20008;SDS011;10165;42.662;23.260;2023-10-31T14:48:58;5.93;;;2.83;;
20008;SDS011;10165;42.662;23.260;2023-10-31T14:51:25;11.30;;;3.40;;